createdAt,value
2022-10-20T00:01:57.133Z,100864.94
2022-10-20T00:04:23.681Z,100868.72
2022-10-20T00:06:50.136Z,100857.59
2022-10-20T00:09:16.666Z,100858.16
2022-10-20T00:11:45.821Z,100864.56
2022-10-20T00:14:14.519Z,100848.13
2022-10-20T00:16:40.971Z,100849.91
2022-10-20T00:19:07.601Z,100846.69
2022-10-20T00:21:34.640Z,100850.28
2022-10-20T00:24:02.206Z,100846.50
2022-10-20T00:26:30.697Z,100839.81
2022-10-20T00:28:57.819Z,100843.13
2022-10-20T00:31:25.239Z,100841.00
2022-10-20T00:33:51.824Z,100846.25
2022-10-20T00:36:20.604Z,100847.44
2022-10-20T00:38:47.944Z,100855.19
2022-10-20T00:41:21.984Z,100849.84
2022-10-20T00:44:00.570Z,100833.69
2022-10-20T00:46:36.717Z,100835.88
2022-10-20T00:49:20.363Z,100839.00
2022-10-20T00:51:50.912Z,100829.06
2022-10-20T00:54:27.700Z,100815.56
2022-10-20T00:56:59.804Z,100815.66
2022-10-20T00:59:28.295Z,100813.56
2022-10-20T01:01:55.954Z,100802.84
2022-10-20T01:04:22.904Z,100801.38
2022-10-20T01:06:49.452Z,100798.47
2022-10-20T01:09:15.929Z,100796.97
2022-10-20T01:11:59.903Z,100798.19
2022-10-20T01:14:59.856Z,100797.25
2022-10-20T01:18:02.756Z,100805.00
2022-10-20T01:21:04.248Z,100811.66
2022-10-20T01:23:55.474Z,100805.72
2022-10-20T01:26:57.665Z,100793.47
2022-10-20T01:29:35.951Z,100791.09
2022-10-20T01:32:34.811Z,100791.94
2022-10-20T01:35:14.434Z,100786.47
2022-10-20T01:37:56.021Z,100779.50
2022-10-20T01:40:31.306Z,100771.19
2022-10-20T01:43:02.059Z,100776.00
2022-10-20T01:45:32.536Z,100762.31
2022-10-20T01:48:05.047Z,100770.72
2022-10-20T01:50:34.842Z,100755.16
2022-10-20T01:53:01.815Z,100751.75
2022-10-20T01:55:28.396Z,100748.16
2022-10-20T01:58:12.679Z,100742.78
2022-10-20T02:00:42.471Z,100735.81
2022-10-20T02:03:27.369Z,100738.41
2022-10-20T02:06:24.518Z,100743.50
2022-10-20T02:08:55.917Z,100743.59
2022-10-20T02:11:26.687Z,100749.31
2022-10-20T02:13:56.625Z,100741.69
2022-10-20T02:16:34.433Z,100742.47
2022-10-20T02:19:01.993Z,100740.00
2022-10-20T02:21:28.697Z,100736.81
2022-10-20T02:24:00.392Z,100735.50
2022-10-20T02:26:27.097Z,100736.34
2022-10-20T02:28:58.918Z,100748.50
2022-10-20T02:31:25.682Z,100739.66
2022-10-20T02:33:54.419Z,100741.03
2022-10-20T02:36:26.669Z,100735.50
2022-10-20T02:38:53.320Z,100735.03
2022-10-20T02:41:19.783Z,100731.69
2022-10-20T02:43:53.599Z,100721.53
2022-10-20T02:46:23.825Z,100725.97
2022-10-20T02:48:52.494Z,100726.44
2022-10-20T02:51:18.970Z,100723.50
2022-10-20T02:53:45.843Z,100726.22
2022-10-20T02:59:53.179Z,100722.97
2022-10-20T03:02:22.082Z,100715.44
2022-10-20T03:04:48.438Z,100710.41
2022-10-20T03:07:15.042Z,100708.91
2022-10-20T03:09:44.300Z,100722.56
2022-10-20T03:12:10.683Z,100707.69
2022-10-20T03:14:37.225Z,100715.88
2022-10-20T03:17:03.705Z,100714.38
2022-10-20T03:19:30.116Z,100718.34
2022-10-20T03:21:56.727Z,100720.63
2022-10-20T03:24:23.205Z,100714.69
2022-10-20T03:26:51.896Z,100707.97
2022-10-20T03:29:18.501Z,100708.78
2022-10-20T03:31:45.217Z,100705.19
2022-10-20T03:34:12.740Z,100704.16
2022-10-20T03:36:39.267Z,100696.97
2022-10-20T03:39:05.785Z,100697.81
2022-10-20T03:41:34.494Z,100688.94
2022-10-20T03:44:00.918Z,100682.44
2022-10-20T03:46:27.355Z,100679.97
2022-10-20T03:48:53.827Z,100671.00
2022-10-20T03:51:20.445Z,100665.63
2022-10-20T03:53:51.521Z,100670.34
2022-10-20T03:56:21.297Z,100671.00
2022-10-20T03:58:48.447Z,100666.75
2022-10-20T04:01:24.591Z,100659.13
2022-10-20T04:03:54.245Z,100661.69
2022-10-20T04:06:20.783Z,100662.50
2022-10-20T04:08:49.316Z,100667.34
2022-10-20T04:11:15.780Z,100675.47
2022-10-20T04:13:42.261Z,100684.78
2022-10-20T04:16:08.727Z,100679.97
2022-10-20T04:18:35.169Z,100677.66
2022-10-20T04:21:01.648Z,100679.97
2022-10-20T04:23:28.121Z,100677.13
2022-10-20T04:25:54.520Z,100680.91
2022-10-20T04:28:21.345Z,100679.41
2022-10-20T04:30:47.956Z,100675.16
2022-10-20T04:33:14.767Z,100672.69
2022-10-20T04:35:41.553Z,100663.81
2022-10-20T04:38:08.171Z,100658.34
2022-10-20T04:40:34.637Z,100653.94
2022-10-20T04:43:01.722Z,100635.16
2022-10-20T04:45:28.218Z,100632.22
2022-10-20T04:47:54.662Z,100633.53
2022-10-20T04:50:21.071Z,100633.72
2022-10-20T04:52:47.551Z,100634.38
2022-10-20T04:55:16.352Z,100620.88
2022-10-20T04:57:45.068Z,100620.50
2022-10-20T05:00:12.074Z,100612.50
2022-10-20T05:02:40.576Z,100609.94
2022-10-20T05:05:11.624Z,100609.09
2022-10-20T05:07:40.381Z,100612.44
2022-10-20T05:10:07.312Z,100621.41
2022-10-20T05:12:34.175Z,100633.22
2022-10-20T05:15:00.977Z,100628.31
2022-10-20T05:17:29.942Z,100621.47
2022-10-20T05:19:56.656Z,100611.38
2022-10-20T05:22:23.049Z,100608.19
2022-10-20T05:24:51.873Z,100610.47
2022-10-20T05:27:18.205Z,100594.66
2022-10-20T05:29:47.147Z,100598.69
2022-10-20T05:32:13.599Z,100591.28
2022-10-20T05:34:40.192Z,100590.22
2022-10-20T05:37:06.956Z,100595.56
2022-10-20T05:39:33.371Z,100592.16
2022-10-20T05:41:59.734Z,100588.13
2022-10-20T05:44:26.112Z,100587.94
2022-10-20T05:46:52.526Z,100584.81
2022-10-20T05:49:18.947Z,100579.56
2022-10-20T05:51:46.777Z,100580.97
2022-10-20T05:54:14.135Z,100577.41
2022-10-20T05:56:40.653Z,100581.63
2022-10-20T05:59:07.580Z,100582.84
2022-10-20T06:01:48.150Z,100590.38
2022-10-20T06:04:17.437Z,100579.28
2022-10-20T06:06:44.176Z,100580.31
2022-10-20T06:09:11.894Z,100579.72
2022-10-20T06:11:39.700Z,100576.34
2022-10-20T06:14:07.852Z,100582.19
2022-10-20T06:16:34.776Z,100599.44
2022-10-20T06:19:01.525Z,100616.63
2022-10-20T06:21:32.401Z,100625.09
2022-10-20T06:24:00.033Z,100624.25
2022-10-20T06:26:33.048Z,100625.56
2022-10-20T06:29:04.293Z,100619.69
2022-10-20T06:31:34.966Z,100622.91
2022-10-20T06:34:04.623Z,100630.69
2022-10-20T06:36:31.050Z,100655.97
2022-10-20T06:38:59.099Z,100648.59
2022-10-20T06:41:26.906Z,100657.25
2022-10-20T06:44:00.559Z,100645.97
2022-10-20T06:46:28.839Z,100635.66
2022-10-20T06:48:58.609Z,100627.28
2022-10-20T06:51:26.082Z,100641.41
2022-10-20T06:53:53.024Z,100637.88
2022-10-20T06:56:22.889Z,100645.50
2022-10-20T06:58:51.365Z,100660.28
2022-10-20T07:01:26.044Z,100656.97
2022-10-20T07:03:55.128Z,100655.38
2022-10-20T07:06:25.315Z,100647.63
2022-10-20T07:08:56.314Z,100642.38
2022-10-20T07:11:30.484Z,100651.72
2022-10-20T07:14:01.476Z,100656.59
2022-10-20T07:16:32.480Z,100650.16
2022-10-20T07:19:00.242Z,100649.16
2022-10-20T07:21:32.345Z,100643.91
2022-10-20T07:24:04.068Z,100639.19
2022-10-20T07:26:33.284Z,100649.31
2022-10-20T07:29:01.556Z,100648.75
2022-10-20T07:31:37.051Z,100644.56
2022-10-20T07:34:23.776Z,100654.25
2022-10-20T07:36:51.142Z,100649.03
2022-10-20T07:39:20.007Z,100636.00
2022-10-20T07:41:47.904Z,100627.38
2022-10-20T07:44:14.666Z,100629.13
2022-10-20T07:46:41.202Z,100632.94
2022-10-20T07:51:54.180Z,100625.84
2022-10-20T07:54:20.575Z,100624.41
2022-10-20T07:56:47.062Z,100620.84
2022-10-20T07:59:14.548Z,100611.81
2022-10-20T08:01:43.939Z,100605.66
2022-10-20T08:04:10.952Z,100617.06
2022-10-20T08:06:39.265Z,100606.97
2022-10-20T08:09:06.420Z,100614.38
2022-10-20T08:11:33.160Z,100617.59
2022-10-20T08:13:59.643Z,100620.59
2022-10-20T08:16:27.862Z,100626.72
2022-10-20T08:21:40.405Z,100627.38
2022-10-20T08:24:06.848Z,100639.63
2022-10-20T08:26:33.280Z,100629.78
2022-10-20T08:28:59.909Z,100623.03
2022-10-20T08:31:26.316Z,100627.03
2022-10-20T08:33:56.756Z,100627.84
2022-10-20T08:36:23.354Z,100621.13
2022-10-20T08:38:49.777Z,100611.25
2022-10-20T08:41:38.780Z,100611.66
2022-10-20T08:44:22.533Z,100620.34
2022-10-20T08:46:49.605Z,100609.56
2022-10-20T08:49:23.150Z,100611.47
2022-10-20T08:51:49.817Z,100624.38
2022-10-20T08:54:17.610Z,100624.34
2022-10-20T08:56:47.314Z,100632.16
2022-10-20T08:59:26.399Z,100635.97
2022-10-20T09:01:54.406Z,100631.31
2022-10-20T09:04:23.945Z,100636.63
2022-10-20T09:06:59.287Z,100631.53
2022-10-20T09:09:30.285Z,100628.56
2022-10-20T09:12:05.266Z,100647.19
2022-10-20T09:14:37.139Z,100647.38
2022-10-20T09:17:06.912Z,100626.66
2022-10-20T09:19:35.934Z,100647.16
2022-10-20T09:22:06.992Z,100648.88
2022-10-20T09:24:35.651Z,100643.34
2022-10-20T09:27:22.576Z,100647.31
2022-10-20T09:29:49.335Z,100667.16
2022-10-20T09:32:55.502Z,100665.66
2022-10-20T09:35:27.519Z,100653.59
2022-10-20T09:37:58.676Z,100645.50
2022-10-20T09:40:26.732Z,100650.31
2022-10-20T09:43:00.101Z,100650.41
2022-10-20T09:45:29.965Z,100660.19
2022-10-20T09:48:03.888Z,100655.31
2022-10-20T09:50:34.831Z,100643.03
2022-10-20T09:53:07.325Z,100653.16
2022-10-20T09:55:41.925Z,100634.53
2022-10-20T09:58:21.625Z,100641.31
2022-10-20T10:00:56.873Z,100640.88
2022-10-20T10:03:24.201Z,100628.16
2022-10-20T10:05:53.704Z,100626.00
2022-10-20T10:08:22.299Z,100636.53
2022-10-20T10:11:05.557Z,100625.31
2022-10-20T10:13:42.824Z,100602.22
2022-10-20T10:16:14.150Z,100604.50
2022-10-20T10:18:45.441Z,100608.25
2022-10-20T10:21:17.459Z,100607.66
2022-10-20T10:23:51.186Z,100613.06
2022-10-20T10:26:32.989Z,100615.84
2022-10-20T10:28:59.477Z,100601.25
2022-10-20T10:31:26.750Z,100623.03
2022-10-20T10:34:22.744Z,100600.56
2022-10-20T10:36:51.410Z,100595.38
2022-10-20T10:39:17.853Z,100593.75
2022-10-20T10:41:53.118Z,100575.25
2022-10-20T10:44:33.570Z,100584.56
2022-10-20T10:47:19.059Z,100580.28
2022-10-20T10:50:16.540Z,100563.56
2022-10-20T10:53:15.555Z,100575.56
2022-10-20T10:55:56.641Z,100573.28
2022-10-20T10:58:41.416Z,100570.81
2022-10-20T11:01:50.133Z,100562.28
2022-10-20T11:04:29.310Z,100557.53
2022-10-20T11:06:58.704Z,100566.69
2022-10-20T11:09:31.787Z,100572.22
2022-10-20T11:12:08.944Z,100579.03
2022-10-20T11:15:02.834Z,100568.78
2022-10-20T11:17:42.690Z,100570.06
2022-10-20T11:20:15.801Z,100552.78
2022-10-20T11:23:07.136Z,100547.94
2022-10-20T11:25:42.353Z,100563.50
2022-10-20T11:28:31.752Z,100542.09
2022-10-20T11:31:01.613Z,100558.25
2022-10-20T11:33:39.289Z,100544.09
2022-10-20T11:36:19.388Z,100529.38
2022-10-20T11:38:54.991Z,100520.75
2022-10-20T11:41:36.543Z,100517.03
2022-10-20T11:44:36.604Z,100557.72
2022-10-20T11:47:08.133Z,100538.84
2022-10-20T11:49:34.758Z,100540.75
2022-10-20T11:52:37.028Z,100556.41
2022-10-20T11:55:20.877Z,100562.38
2022-10-20T11:58:24.608Z,100566.56
2022-10-20T12:00:59.961Z,100557.66
2022-10-20T12:03:36.854Z,100562.56
2022-10-20T12:06:15.342Z,100560.00
2022-10-20T12:08:41.829Z,100562.38
2022-10-20T12:11:30.098Z,100571.03
2022-10-20T12:14:14.828Z,100566.97
2022-10-20T12:16:53.750Z,100566.69
2022-10-20T12:19:29.592Z,100556.31
2022-10-20T12:22:26.740Z,100556.59
2022-10-20T12:24:53.172Z,100556.63
2022-10-20T12:27:25.233Z,100549.03
2022-10-20T12:30:02.087Z,100537.19
2022-10-20T12:32:28.487Z,100542.50
2022-10-20T12:34:59.021Z,100533.03
2022-10-20T12:37:29.445Z,100536.56
2022-10-20T12:40:23.783Z,100539.13
2022-10-20T12:42:53.593Z,100529.81
2022-10-20T12:45:19.916Z,100522.63
2022-10-20T12:47:54.962Z,100518.22
2022-10-20T12:50:27.247Z,100506.75
2022-10-20T12:52:54.316Z,100504.63
2022-10-20T12:55:38.223Z,100497.41
2022-10-20T12:58:26.766Z,100488.03
2022-10-20T13:00:53.532Z,100486.94
2022-10-20T13:03:32.184Z,100491.41
2022-10-20T13:05:59.488Z,100496.69
2022-10-20T13:08:29.861Z,100496.91
2022-10-20T13:11:16.889Z,100487.31
2022-10-20T13:13:55.115Z,100482.03
2022-10-20T13:16:23.525Z,100481.19
2022-10-20T13:18:53.219Z,100477.38
2022-10-20T13:21:30.676Z,100476.94
2022-10-20T13:24:14.299Z,100457.47
2022-10-20T13:26:43.687Z,100442.59
2022-10-20T13:29:33.129Z,100453.47
2022-10-20T13:32:14.849Z,100477.16
2022-10-20T13:34:45.416Z,100489.44
2022-10-20T13:37:31.153Z,100484.34
2022-10-20T13:40:18.921Z,100498.16
2022-10-20T13:43:07.529Z,100502.59
2022-10-20T13:45:49.146Z,100492.19
2022-10-20T13:48:39.867Z,100488.38
2022-10-20T13:51:18.415Z,100486.69
2022-10-20T13:53:50.503Z,100492.03
2022-10-20T13:56:16.834Z,100497.34
2022-10-20T13:59:18.414Z,100490.59
2022-10-20T14:01:50.961Z,100493.56
2022-10-20T14:04:35.308Z,100495.72
2022-10-20T14:07:05.126Z,100513.06
2022-10-20T14:09:37.912Z,100502.91
2022-10-20T14:12:17.099Z,100513.47
2022-10-20T14:14:45.027Z,100501.81
2022-10-20T14:17:22.892Z,100502.22
2022-10-20T14:19:52.722Z,100495.50
2022-10-20T14:22:25.383Z,100480.25
2022-10-20T14:24:57.280Z,100472.91
2022-10-20T14:27:28.131Z,100465.25
2022-10-20T14:29:56.564Z,100472.50
2022-10-20T14:32:26.558Z,100469.13
2022-10-20T14:35:16.493Z,100471.25
2022-10-20T14:37:53.384Z,100470.41
2022-10-20T14:40:19.850Z,100454.13
2022-10-20T14:42:46.959Z,100444.22
2022-10-20T14:45:25.886Z,100439.97
2022-10-20T14:47:54.354Z,100432.75
2022-10-20T14:50:42.096Z,100433.59
2022-10-20T14:53:25.425Z,100441.84
2022-10-20T14:55:54.210Z,100432.38
2022-10-20T14:59:01.975Z,100420.91
2022-10-20T15:01:32.472Z,100431.06
2022-10-20T15:04:11.049Z,100428.56
2022-10-20T15:06:37.887Z,100422.22
2022-10-20T15:09:04.788Z,100417.78
2022-10-20T15:11:36.101Z,100415.22
2022-10-20T15:14:02.540Z,100405.06
2022-10-20T15:16:39.689Z,100405.72
2022-10-20T15:19:29.185Z,100412.06
2022-10-20T15:22:02.413Z,100406.75
2022-10-20T15:24:29.159Z,100408.88
2022-10-20T15:26:57.011Z,100410.19
2022-10-20T15:29:24.092Z,100412.06
2022-10-20T15:31:50.532Z,100410.63
2022-10-20T15:34:19.489Z,100410.84
2022-10-20T15:36:47.619Z,100411.28
2022-10-20T15:39:16.804Z,100408.09
2022-10-20T15:41:47.107Z,100417.84
2022-10-20T15:44:22.025Z,100420.59
2022-10-20T15:46:52.252Z,100424.44
2022-10-20T15:49:19.074Z,100436.47
2022-10-20T15:51:47.200Z,100435.88
2022-10-20T15:54:16.278Z,100432.69
2022-10-20T15:56:42.922Z,100432.28
2022-10-20T15:59:09.329Z,100430.00
2022-10-20T16:01:36.230Z,100427.06
2022-10-20T16:04:16.586Z,100434.69
2022-10-20T16:06:43.770Z,100438.94
2022-10-20T16:09:15.772Z,100434.91
2022-10-20T16:11:43.177Z,100429.84
2022-10-20T16:14:09.798Z,100433.88
2022-10-20T16:16:36.257Z,100427.97
2022-10-20T16:19:02.900Z,100421.22
2022-10-20T16:21:29.470Z,100415.53
2022-10-20T16:23:55.979Z,100417.69
2022-10-20T16:26:22.438Z,100413.25
2022-10-20T16:28:49.053Z,100412.38
2022-10-20T16:31:16.547Z,100411.97
2022-10-20T16:33:43.405Z,100404.19
2022-10-20T16:36:11.968Z,100414.94
2022-10-20T16:38:40.881Z,100425.50
2022-10-20T16:41:13.190Z,100432.50
2022-10-20T16:43:48.027Z,100427.91
2022-10-20T16:46:15.255Z,100423.88
2022-10-20T16:48:42.822Z,100428.56
2022-10-20T16:51:15.152Z,100428.59
2022-10-20T16:53:41.664Z,100423.53
2022-10-20T16:56:08.308Z,100421.19
2022-10-20T16:58:35.545Z,100405.16
2022-10-20T17:01:06.314Z,100416.38
2022-10-20T17:03:35.572Z,100422.69
2022-10-20T17:06:06.551Z,100415.72
2022-10-20T17:08:34.661Z,100403.69
2022-10-20T17:11:04.019Z,100398.81
2022-10-20T17:13:31.283Z,100390.19
2022-10-20T17:16:04.529Z,100386.34
2022-10-20T17:18:30.923Z,100388.47
2022-10-20T17:20:59.929Z,100376.44
2022-10-20T17:23:26.603Z,100377.09
2022-10-20T17:25:58.065Z,100374.13
2022-10-20T17:28:24.408Z,100370.53
2022-10-20T17:30:53.030Z,100368.22
2022-10-20T17:33:19.380Z,100398.19
2022-10-20T17:35:49.047Z,100427.56
2022-10-20T17:38:15.527Z,100435.59
2022-10-20T17:40:41.967Z,100432.44
2022-10-20T17:43:08.362Z,100430.31
2022-10-20T17:45:38.194Z,100424.41
2022-10-20T17:48:05.358Z,100421.47
2022-10-20T17:50:34.233Z,100413.84
2022-10-20T17:53:01.389Z,100402.88
2022-10-20T17:55:32.872Z,100413.44
2022-10-20T17:58:06.436Z,100398.88
2022-10-20T18:00:54.755Z,100367.84
2022-10-20T18:03:19.203Z,100380.75
2022-10-20T18:05:45.576Z,100415.56
2022-10-20T18:08:11.948Z,100413.91
2022-10-20T18:10:44.682Z,100406.72
2022-10-20T18:13:11.098Z,100413.03
2022-10-20T18:15:42.828Z,100408.59
2022-10-20T18:18:12.341Z,100381.16
2022-10-20T18:20:38.683Z,100362.81
2022-10-20T18:23:07.402Z,100369.34
2022-10-20T18:25:35.549Z,100381.16
2022-10-20T18:28:01.976Z,100384.16
2022-10-20T18:30:28.404Z,100377.56
2022-10-20T18:32:54.938Z,100359.25
2022-10-20T18:35:23.439Z,100350.78
2022-10-20T18:37:56.014Z,100355.19
2022-10-20T18:40:24.695Z,100359.41
2022-10-20T18:42:53.526Z,100358.81
2022-10-20T18:45:22.643Z,100350.13
2022-10-20T18:47:51.723Z,100347.38
2022-10-20T18:50:18.266Z,100344.47
2022-10-20T18:52:47.212Z,100344.66
2022-10-20T18:55:13.635Z,100326.09
2022-10-20T18:57:40.298Z,100343.41
2022-10-20T19:00:08.658Z,100343.41
2022-10-20T19:02:35.503Z,100331.59
2022-10-20T19:05:03.228Z,100316.19
2022-10-20T19:07:32.502Z,100321.44
2022-10-20T19:09:59.025Z,100316.81
2022-10-20T19:12:25.446Z,100319.56
2022-10-20T19:14:52.409Z,100321.44
2022-10-20T19:17:18.789Z,100310.72
2022-10-20T19:19:46.485Z,100316.81
2022-10-20T19:22:12.905Z,100332.81
2022-10-20T19:24:40.611Z,100320.84
2022-10-20T19:27:25.595Z,100321.44
2022-10-20T19:29:56.035Z,100314.47
2022-10-20T19:32:22.485Z,100311.94
2022-10-20T19:34:48.910Z,100315.13
2022-10-20T19:37:15.333Z,100319.97
2022-10-20T19:39:42.366Z,100325.25
2022-10-20T19:42:10.363Z,100339.81
2022-10-20T19:44:37.269Z,100338.94
2022-10-20T19:47:04.949Z,100342.53
2022-10-20T19:49:31.567Z,100341.06
2022-10-20T19:51:58.756Z,100349.91
2022-10-20T19:54:27.065Z,100356.66
2022-10-20T19:56:53.518Z,100351.19
2022-10-20T19:59:22.424Z,100354.97
2022-10-20T20:01:54.149Z,100345.47
2022-10-20T20:04:25.581Z,100343.38
2022-10-20T20:06:51.975Z,100345.09
2022-10-20T20:09:18.537Z,100346.53
2022-10-20T20:11:44.965Z,100329.63
2022-10-20T20:14:29.152Z,100320.97
2022-10-20T20:16:56.028Z,100318.63
2022-10-20T20:19:22.420Z,100318.22
2022-10-20T20:21:48.819Z,100315.66
2022-10-20T20:24:15.279Z,100321.59
2022-10-20T20:26:42.163Z,100324.53
2022-10-20T20:29:09.682Z,100324.31
2022-10-20T20:31:36.116Z,100326.47
2022-10-20T20:34:02.548Z,100329.41
2022-10-20T20:36:29.097Z,100332.56
2022-10-20T20:38:59.444Z,100318.22
2022-10-20T20:41:28.165Z,100329.81
2022-10-20T20:43:54.577Z,100335.50
2022-10-20T20:46:23.641Z,100337.16
2022-10-20T20:48:53.341Z,100341.19
2022-10-20T20:51:25.217Z,100344.16
2022-10-20T20:53:51.628Z,100346.28
2022-10-20T20:56:21.669Z,100353.66
2022-10-20T20:58:50.445Z,100344.81
2022-10-20T21:01:18.706Z,100340.19
2022-10-20T21:03:45.923Z,100335.09
2022-10-20T21:06:17.505Z,100342.28
2022-10-20T21:08:50.084Z,100332.34
2022-10-20T21:11:23.098Z,100324.56
2022-10-20T21:13:51.330Z,100320.13
2022-10-20T21:16:28.273Z,100312.75
2022-10-20T21:18:58.142Z,100301.13
2022-10-20T21:21:38.879Z,100292.44
2022-10-20T21:24:06.520Z,100272.78
2022-10-20T21:26:35.019Z,100291.34
2022-10-20T21:29:06.650Z,100309.94
2022-10-20T21:31:33.082Z,100282.47
2022-10-20T21:34:04.797Z,100289.66
2022-10-20T21:36:34.643Z,100271.91
2022-10-20T21:39:02.348Z,100269.78
2022-10-20T21:41:32.295Z,100259.63
2022-10-20T21:44:03.597Z,100265.97
2022-10-20T21:46:35.902Z,100275.03
2022-10-20T21:49:07.913Z,100288.34
2022-10-20T21:51:36.133Z,100285.38
2022-10-20T21:54:08.188Z,100286.22
2022-10-20T21:56:36.335Z,100280.50
2022-10-20T21:59:06.402Z,100281.34
2022-10-20T22:01:35.226Z,100276.50
2022-10-20T22:04:02.003Z,100271.00
2022-10-20T22:06:31.054Z,100281.97
2022-10-20T22:09:03.679Z,100285.19
2022-10-20T22:11:33.559Z,100267.63
2022-10-20T22:14:00.500Z,100255.78
2022-10-20T22:16:30.325Z,100253.69
2022-10-20T22:19:21.191Z,100254.53
2022-10-20T22:21:49.897Z,100231.25
2022-10-20T22:24:18.511Z,100233.16
2022-10-20T22:26:44.994Z,100252.38
2022-10-20T22:29:11.415Z,100248.59
2022-10-20T22:31:39.626Z,100245.44
2022-10-20T22:34:06.618Z,100235.91
2022-10-20T22:36:33.090Z,100245.84
2022-10-20T22:39:02.296Z,100247.75
2022-10-20T22:41:28.755Z,100246.69
2022-10-20T22:43:55.183Z,100220.50
2022-10-20T22:46:21.609Z,100210.34
2022-10-20T22:48:48.078Z,100232.72
2022-10-20T22:51:15.614Z,100220.06
2022-10-20T22:53:45.155Z,100211.53
2022-10-20T22:56:20.698Z,100226.97
2022-10-20T22:58:52.812Z,100225.91
2022-10-20T23:01:22.395Z,100234.53
2022-10-20T23:03:49.307Z,100241.34
2022-10-20T23:06:22.043Z,100245.53
2022-10-20T23:08:53.828Z,100244.25
2022-10-20T23:11:21.007Z,100251.41
2022-10-20T23:13:47.993Z,100254.16
2022-10-20T23:16:14.656Z,100257.13
2022-10-20T23:18:46.109Z,100262.84
2022-10-20T23:21:13.767Z,100289.69
2022-10-20T23:23:40.855Z,100289.06
2022-10-20T23:26:10.674Z,100299.84
2022-10-20T23:28:38.619Z,100329.63
2022-10-20T23:31:19.288Z,100333.41
2022-10-20T23:33:47.234Z,100298.81
2022-10-20T23:36:17.379Z,100295.47
2022-10-20T23:38:47.513Z,100312.59
2022-10-20T23:41:14.620Z,100325.50
2022-10-20T23:43:41.147Z,100341.13
2022-10-20T23:46:07.893Z,100326.75
2022-10-20T23:48:34.923Z,100316.03
2022-10-20T23:51:04.049Z,100305.25
2022-10-20T23:53:30.833Z,100291.34
2022-10-20T23:55:59.531Z,100293.06
2022-10-20T23:58:28.772Z,100286.09
